sensor_id;sensor_type;location;lat;lon;timestamp;pressure;altitude;pressure_sealevel;temperature;humidity
17615;BME280;8926;49.720;6.576;2023-03-03T00:00:21;100122.63;;;3.31;66.98
17615;BME280;8926;49.720;6.576;2023-03-03T00:02:46;100124.31;;;3.32;66.24
17615;BME280;8926;49.720;6.576;2023-03-03T00:05:12;100119.28;;;3.26;66.36
17615;BME280;8926;49.720;6.576;2023-03-03T00:07:42;100120.19;;;3.24;66.24
17615;BME280;8926;49.720;6.576;2023-03-03T00:10:08;100127.00;;;3.28;66.36
17615;BME280;8926;49.720;6.576;2023-03-03T00:12:34;100126.91;;;3.32;65.41
17615;BME280;8926;49.720;6.576;2023-03-03T00:15:18;100126.09;;;3.30;64.82
17615;BME280;8926;49.720;6.576;2023-03-03T00:17:45;100116.66;;;3.28;65.76
17615;BME280;8926;49.720;6.576;2023-03-03T00:20:35;100126.16;;;3.27;64.43
17615;BME280;8926;49.720;6.576;2023-03-03T00:25:57;100140.88;;;3.22;65.34
17615;BME280;8926;49.720;6.576;2023-03-03T00:28:31;100136.59;;;3.21;65.08
17615;BME280;8926;49.720;6.576;2023-03-03T00:30:59;100133.19;;;3.19;65.12
17615;BME280;8926;49.720;6.576;2023-03-03T00:36:05;100138.63;;;3.07;66.45
17615;BME280;8926;49.720;6.576;2023-03-03T00:38:35;100136.88;;;3.09;65.17
17615;BME280;8926;49.720;6.576;2023-03-03T00:41:03;100129.13;;;3.09;66.62
17615;BME280;8926;49.720;6.576;2023-03-03T00:43:35;100141.34;;;2.99;66.40
17615;BME280;8926;49.720;6.576;2023-03-03T00:46:01;100147.41;;;2.97;66.92
17615;BME280;8926;49.720;6.576;2023-03-03T00:48:49;100137.25;;;2.88;67.49
17615;BME280;8926;49.720;6.576;2023-03-03T00:51:32;100140.06;;;2.77;67.17
17615;BME280;8926;49.720;6.576;2023-03-03T00:53:59;100152.19;;;2.72;67.39
17615;BME280;8926;49.720;6.576;2023-03-03T00:56:25;100146.19;;;2.71;67.96
17615;BME280;8926;49.720;6.576;2023-03-03T00:58:51;100153.03;;;2.72;66.27
17615;BME280;8926;49.720;6.576;2023-03-03T01:01:17;100147.06;;;2.69;66.74
17615;BME280;8926;49.720;6.576;2023-03-03T01:03:43;100156.66;;;2.61;67.35
17615;BME280;8926;49.720;6.576;2023-03-03T01:06:09;100152.50;;;2.55;67.01
17615;BME280;8926;49.720;6.576;2023-03-03T01:08:35;100149.88;;;2.58;66.01
17615;BME280;8926;49.720;6.576;2023-03-03T01:11:26;100153.19;;;2.63;66.75
17615;BME280;8926;49.720;6.576;2023-03-03T01:13:53;100161.69;;;2.68;66.78
17615;BME280;8926;49.720;6.576;2023-03-03T01:16:18;100155.59;;;2.74;67.11
17615;BME280;8926;49.720;6.576;2023-03-03T01:18:44;100155.63;;;2.71;66.99
17615;BME280;8926;49.720;6.576;2023-03-03T01:21:10;100162.56;;;2.69;67.14
17615;BME280;8926;49.720;6.576;2023-03-03T01:23:36;100155.03;;;2.58;66.94
17615;BME280;8926;49.720;6.576;2023-03-03T01:26:02;100159.41;;;2.53;67.81
17615;BME280;8926;49.720;6.576;2023-03-03T01:28:28;100159.47;;;2.50;67.67
17615;BME280;8926;49.720;6.576;2023-03-03T01:30:53;100162.13;;;2.44;68.37
17615;BME280;8926;49.720;6.576;2023-03-03T01:33:19;100152.69;;;2.45;67.69
17615;BME280;8926;49.720;6.576;2023-03-03T01:35:45;100155.22;;;2.46;66.66
17615;BME280;8926;49.720;6.576;2023-03-03T01:38:12;100153.53;;;2.45;66.85
17615;BME280;8926;49.720;6.576;2023-03-03T01:40:37;100147.53;;;2.45;65.94
17615;BME280;8926;49.720;6.576;2023-03-03T01:43:03;100145.81;;;2.44;66.17
17615;BME280;8926;49.720;6.576;2023-03-03T01:46:18;100154.50;;;2.38;66.97
17615;BME280;8926;49.720;6.576;2023-03-03T01:48:34;100150.22;;;2.37;67.13
17615;BME280;8926;49.720;6.576;2023-03-03T01:51:04;100146.75;;;2.38;66.21
17615;BME280;8926;49.720;6.576;2023-03-03T01:53:45;100151.91;;;2.38;66.92
17615;BME280;8926;49.720;6.576;2023-03-03T01:56:12;100153.75;;;2.33;66.92
17615;BME280;8926;49.720;6.576;2023-03-03T01:58:44;100153.75;;;2.33;65.82
17615;BME280;8926;49.720;6.576;2023-03-03T02:01:13;100147.75;;;2.32;66.64
17615;BME280;8926;49.720;6.576;2023-03-03T02:03:40;100145.22;;;2.28;67.15
17615;BME280;8926;49.720;6.576;2023-03-03T02:06:09;100155.53;;;2.28;66.49
17615;BME280;8926;49.720;6.576;2023-03-03T02:11:07;100147.00;;;2.24;67.15
17615;BME280;8926;49.720;6.576;2023-03-03T02:13:32;100146.19;;;2.21;66.85
17615;BME280;8926;49.720;6.576;2023-03-03T02:15:58;100147.06;;;2.20;67.29
17615;BME280;8926;49.720;6.576;2023-03-03T02:18:24;100145.41;;;2.16;67.50
17615;BME280;8926;49.720;6.576;2023-03-03T02:23:34;100147.38;;;2.01;68.10
17615;BME280;8926;49.720;6.576;2023-03-03T02:26:08;100138.88;;;1.96;68.30
17615;BME280;8926;49.720;6.576;2023-03-03T02:28:35;100144.03;;;1.96;67.64
17615;BME280;8926;49.720;6.576;2023-03-03T02:31:04;100142.22;;;2.01;67.74
17615;BME280;8926;49.720;6.576;2023-03-03T02:33:29;100140.53;;;1.99;68.17
17615;BME280;8926;49.720;6.576;2023-03-03T02:35:55;100138.91;;;1.93;67.78
17615;BME280;8926;49.720;6.576;2023-03-03T02:41:11;100151.81;;;1.92;67.59
17615;BME280;8926;49.720;6.576;2023-03-03T02:46:12;100145.94;;;1.82;67.96
17615;BME280;8926;49.720;6.576;2023-03-03T02:48:38;100137.44;;;1.77;68.37
17615;BME280;8926;49.720;6.576;2023-03-03T02:51:03;100141.72;;;1.80;68.17
17615;BME280;8926;49.720;6.576;2023-03-03T02:53:28;100140.94;;;1.73;68.27
17615;BME280;8926;49.720;6.576;2023-03-03T02:55:54;100146.16;;;1.67;68.08
17615;BME280;8926;49.720;6.576;2023-03-03T02:58:19;100144.50;;;1.63;69.33
17615;BME280;8926;49.720;6.576;2023-03-03T03:00:44;100153.13;;;1.59;69.59
17615;BME280;8926;49.720;6.576;2023-03-03T03:03:12;100151.41;;;1.61;69.10
17615;BME280;8926;49.720;6.576;2023-03-03T03:05:37;100146.34;;;1.55;69.05
17615;BME280;8926;49.720;6.576;2023-03-03T03:08:02;100135.13;;;1.59;68.62
17615;BME280;8926;49.720;6.576;2023-03-03T03:10:28;100138.47;;;1.65;68.49
17615;BME280;8926;49.720;6.576;2023-03-03T03:12:53;100139.31;;;1.66;68.61
17615;BME280;8926;49.720;6.576;2023-03-03T03:15:18;100148.00;;;1.59;68.44
17615;BME280;8926;49.720;6.576;2023-03-03T03:17:43;100150.56;;;1.60;68.43
17615;BME280;8926;49.720;6.576;2023-03-03T03:20:09;100151.41;;;1.61;68.31
17615;BME280;8926;49.720;6.576;2023-03-03T03:22:35;100150.53;;;1.62;68.66
17615;BME280;8926;49.720;6.576;2023-03-03T03:25:00;100153.09;;;1.62;68.88
17615;BME280;8926;49.720;6.576;2023-03-03T03:27:25;100146.25;;;1.61;68.62
17615;BME280;8926;49.720;6.576;2023-03-03T03:29:51;100147.06;;;1.64;67.98
17615;BME280;8926;49.720;6.576;2023-03-03T03:32:16;100153.88;;;1.68;67.84
17615;BME280;8926;49.720;6.576;2023-03-03T03:34:42;100149.56;;;1.69;67.31
17615;BME280;8926;49.720;6.576;2023-03-03T03:37:07;100156.44;;;1.68;67.51
17615;BME280;8926;49.720;6.576;2023-03-03T03:39:34;100159.06;;;1.65;67.43
17615;BME280;8926;49.720;6.576;2023-03-03T03:41:59;100159.09;;;1.64;67.21
17615;BME280;8926;49.720;6.576;2023-03-03T03:44:24;100160.00;;;1.60;68.60
17615;BME280;8926;49.720;6.576;2023-03-03T03:46:50;100163.44;;;1.59;68.29
17615;BME280;8926;49.720;6.576;2023-03-03T03:49:15;100163.41;;;1.62;68.28
17615;BME280;8926;49.720;6.576;2023-03-03T03:51:40;100160.94;;;1.56;69.18
17615;BME280;8926;49.720;6.576;2023-03-03T03:54:06;100159.22;;;1.55;68.31
17615;BME280;8926;49.720;6.576;2023-03-03T03:56:31;100156.66;;;1.55;68.09
17615;BME280;8926;49.720;6.576;2023-03-03T03:58:57;100162.72;;;1.49;68.74
17615;BME280;8926;49.720;6.576;2023-03-03T04:01:22;100161.94;;;1.43;69.43
17615;BME280;8926;49.720;6.576;2023-03-03T04:03:48;100163.72;;;1.38;69.89
17615;BME280;8926;49.720;6.576;2023-03-03T04:06:13;100165.59;;;1.28;70.01
17615;BME280;8926;49.720;6.576;2023-03-03T04:08:38;100170.75;;;1.26;69.28
17615;BME280;8926;49.720;6.576;2023-03-03T04:11:04;100167.34;;;1.24;70.01
17615;BME280;8926;49.720;6.576;2023-03-03T04:13:29;100169.88;;;1.27;70.02
17615;BME280;8926;49.720;6.576;2023-03-03T04:15:56;100168.16;;;1.29;69.66
17615;BME280;8926;49.720;6.576;2023-03-03T04:18:21;100168.91;;;1.34;69.86
17615;BME280;8926;49.720;6.576;2023-03-03T04:20:46;100167.09;;;1.43;68.57
17615;BME280;8926;49.720;6.576;2023-03-03T04:23:12;100173.97;;;1.44;69.30
17615;BME280;8926;49.720;6.576;2023-03-03T04:25:37;100176.56;;;1.41;68.74
17615;BME280;8926;49.720;6.576;2023-03-03T04:28:03;100165.38;;;1.45;68.55
17615;BME280;8926;49.720;6.576;2023-03-03T04:30:28;100168.78;;;1.47;69.18
17615;BME280;8926;49.720;6.576;2023-03-03T04:32:53;100171.31;;;1.50;68.19
17615;BME280;8926;49.720;6.576;2023-03-03T04:35:18;100170.50;;;1.45;68.26
17615;BME280;8926;49.720;6.576;2023-03-03T04:37:44;100173.97;;;1.44;67.93
17615;BME280;8926;49.720;6.576;2023-03-03T04:40:10;100170.53;;;1.42;68.07
17615;BME280;8926;49.720;6.576;2023-03-03T04:42:35;100174.03;;;1.38;68.00
17615;BME280;8926;49.720;6.576;2023-03-03T04:45:02;100177.53;;;1.30;69.34
17615;BME280;8926;49.720;6.576;2023-03-03T04:47:27;100167.34;;;1.24;69.88
17615;BME280;8926;49.720;6.576;2023-03-03T04:49:52;100172.53;;;1.21;70.38
17615;BME280;8926;49.720;6.576;2023-03-03T04:52:18;100182.81;;;1.21;70.33
17615;BME280;8926;49.720;6.576;2023-03-03T04:54:43;100181.09;;;1.20;69.43
17615;BME280;8926;49.720;6.576;2023-03-03T04:57:08;100183.81;;;1.07;69.84
17615;BME280;8926;49.720;6.576;2023-03-03T04:59:34;100186.41;;;1.05;69.06
17615;BME280;8926;49.720;6.576;2023-03-03T05:02:00;100187.34;;;1.01;69.75
17615;BME280;8926;49.720;6.576;2023-03-03T05:04:25;100184.78;;;1.01;69.82
17615;BME280;8926;49.720;6.576;2023-03-03T05:06:50;100187.38;;;0.96;70.17
17615;BME280;8926;49.720;6.576;2023-03-03T05:09:15;100186.53;;;0.96;70.00
17615;BME280;8926;49.720;6.576;2023-03-03T05:11:41;100204.56;;;0.93;69.33
17615;BME280;8926;49.720;6.576;2023-03-03T05:14:06;100196.84;;;0.93;69.67
17615;BME280;8926;49.720;6.576;2023-03-03T05:16:32;100201.16;;;0.91;70.57
17615;BME280;8926;49.720;6.576;2023-03-03T05:18:58;100196.88;;;0.90;70.89
17615;BME280;8926;49.720;6.576;2023-03-03T05:21:23;100203.75;;;0.88;71.39
17615;BME280;8926;49.720;6.576;2023-03-03T05:23:48;100200.38;;;0.83;71.59
17615;BME280;8926;49.720;6.576;2023-03-03T05:26:14;100190.03;;;0.89;70.42
17615;BME280;8926;49.720;6.576;2023-03-03T05:28:39;100197.75;;;0.89;70.16
17615;BME280;8926;49.720;6.576;2023-03-03T05:31:04;100202.03;;;0.90;69.93
17615;BME280;8926;49.720;6.576;2023-03-03T05:33:30;100198.56;;;0.92;70.41
17615;BME280;8926;49.720;6.576;2023-03-03T05:35:56;100201.97;;;0.96;69.79
17615;BME280;8926;49.720;6.576;2023-03-03T05:38:22;100202.81;;;0.98;69.65
17615;BME280;8926;49.720;6.576;2023-03-03T05:40:48;100200.22;;;0.98;70.33
17615;BME280;8926;49.720;6.576;2023-03-03T05:43:13;100205.38;;;0.98;69.80
17615;BME280;8926;49.720;6.576;2023-03-03T05:45:39;100195.16;;;0.92;70.88
17615;BME280;8926;49.720;6.576;2023-03-03T05:48:04;100208.81;;;0.95;70.68
17615;BME280;8926;49.720;6.576;2023-03-03T05:50:30;100203.63;;;1.00;70.46
17615;BME280;8926;49.720;6.576;2023-03-03T05:52:56;100206.19;;;1.01;69.91
17615;BME280;8926;49.720;6.576;2023-03-03T05:55:21;100207.09;;;0.96;70.86
17615;BME280;8926;49.720;6.576;2023-03-03T05:57:47;100205.38;;;0.96;70.62
17615;BME280;8926;49.720;6.576;2023-03-03T06:00:13;100209.66;;;0.99;71.52
17615;BME280;8926;49.720;6.576;2023-03-03T06:02:39;100217.34;;;1.02;70.38
17615;BME280;8926;49.720;6.576;2023-03-03T06:05:05;100220.78;;;1.01;70.01
17615;BME280;8926;49.720;6.576;2023-03-03T06:07:31;100228.53;;;0.96;70.97
17615;BME280;8926;49.720;6.576;2023-03-03T06:09:56;100225.09;;;0.97;70.80
17615;BME280;8926;49.720;6.576;2023-03-03T06:12:21;100221.66;;;1.00;71.02
17615;BME280;8926;49.720;6.576;2023-03-03T06:14:47;100225.88;;;1.04;70.18
17615;BME280;8926;49.720;6.576;2023-03-03T06:17:12;100222.44;;;1.05;70.83
17615;BME280;8926;49.720;6.576;2023-03-03T06:19:37;100225.84;;;1.07;70.73
17615;BME280;8926;49.720;6.576;2023-03-03T06:22:03;100229.28;;;1.06;70.30
17615;BME280;8926;49.720;6.576;2023-03-03T06:24:28;100234.41;;;1.06;71.58
17615;BME280;8926;49.720;6.576;2023-03-03T06:26:56;100238.72;;;1.04;70.84
17615;BME280;8926;49.720;6.576;2023-03-03T06:29:22;100242.22;;;1.01;71.67
17615;BME280;8926;49.720;6.576;2023-03-03T06:31:47;100249.09;;;0.99;70.53
17615;BME280;8926;49.720;6.576;2023-03-03T06:34:13;100244.72;;;1.05;70.78
17615;BME280;8926;49.720;6.576;2023-03-03T06:36:38;100241.22;;;1.13;69.61
17615;BME280;8926;49.720;6.576;2023-03-03T06:39:04;100244.59;;;1.18;69.41
17615;BME280;8926;49.720;6.576;2023-03-03T06:41:29;100241.13;;;1.22;70.11
17615;BME280;8926;49.720;6.576;2023-03-03T06:43:55;100241.97;;;1.23;70.37
17615;BME280;8926;49.720;6.576;2023-03-03T06:46:20;100243.50;;;1.38;69.81
17615;BME280;8926;49.720;6.576;2023-03-03T06:48:45;100248.56;;;1.48;70.44
17615;BME280;8926;49.720;6.576;2023-03-03T06:51:23;100252.84;;;1.48;69.48
17615;BME280;8926;49.720;6.576;2023-03-03T06:53:53;100260.59;;;1.45;70.04
17615;BME280;8926;49.720;6.576;2023-03-03T06:56:20;100270.03;;;1.46;69.78
17615;BME280;8926;49.720;6.576;2023-03-03T06:58:46;100277.72;;;1.49;70.00
17615;BME280;8926;49.720;6.576;2023-03-03T07:01:15;100266.50;;;1.56;69.75
17615;BME280;8926;49.720;6.576;2023-03-03T07:03:41;100278.38;;;1.66;69.57
17615;BME280;8926;49.720;6.576;2023-03-03T07:06:24;100285.88;;;1.83;69.58
17615;BME280;8926;49.720;6.576;2023-03-03T07:08:51;100277.97;;;1.96;68.98
17615;BME280;8926;49.720;6.576;2023-03-03T07:11:19;100276.53;;;2.37;68.71
17615;BME280;8926;49.720;6.576;2023-03-03T07:13:54;100276.06;;;4.04;65.11
17615;BME280;8926;49.720;6.576;2023-03-03T07:16:26;100264.25;;;5.33;61.69
17615;BME280;8926;49.720;6.576;2023-03-03T07:19:02;100265.22;;;6.49;59.59
17615;BME280;8926;49.720;6.576;2023-03-03T07:21:34;100254.50;;;7.35;57.86
17615;BME280;8926;49.720;6.576;2023-03-03T07:24:15;100260.47;;;8.07;57.39
17615;BME280;8926;49.720;6.576;2023-03-03T07:26:44;100251.19;;;8.67;53.87
17615;BME280;8926;49.720;6.576;2023-03-03T07:29:20;100247.72;;;9.09;51.04
17615;BME280;8926;49.720;6.576;2023-03-03T07:31:47;100254.22;;;9.19;51.83
17615;BME280;8926;49.720;6.576;2023-03-03T07:37:01;100256.31;;;9.89;48.89
17615;BME280;8926;49.720;6.576;2023-03-03T07:39:38;100257.91;;;10.31;51.51
17615;BME280;8926;49.720;6.576;2023-03-03T07:44:34;100258.44;;;10.91;46.84
17615;BME280;8926;49.720;6.576;2023-03-03T07:47:14;100259.00;;;11.47;45.00
17615;BME280;8926;49.720;6.576;2023-03-03T07:49:40;100260.81;;;11.80;49.20
17615;BME280;8926;49.720;6.576;2023-03-03T07:54:55;100266.41;;;12.37;42.61
17615;BME280;8926;49.720;6.576;2023-03-03T07:57:25;100274.06;;;12.71;44.04
17615;BME280;8926;49.720;6.576;2023-03-03T08:02:40;100267.97;;;13.16;42.56
17615;BME280;8926;49.720;6.576;2023-03-03T08:10:52;100273.13;;;14.03;39.53
17615;BME280;8926;49.720;6.576;2023-03-03T08:13:23;100275.94;;;14.14;39.35
17615;BME280;8926;49.720;6.576;2023-03-03T08:15:51;100276.16;;;13.97;37.82
17615;BME280;8926;49.720;6.576;2023-03-03T08:18:21;100281.59;;;13.94;38.52
17615;BME280;8926;49.720;6.576;2023-03-03T08:20:49;100276.44;;;13.64;39.11
17615;BME280;8926;49.720;6.576;2023-03-03T08:23:16;100290.94;;;12.81;40.92
17615;BME280;8926;49.720;6.576;2023-03-03T08:25:43;100284.28;;;11.97;41.62
17615;BME280;8926;49.720;6.576;2023-03-03T08:28:09;100302.13;;;11.23;43.06
17615;BME280;8926;49.720;6.576;2023-03-03T08:30:35;100298.59;;;10.90;44.38
17615;BME280;8926;49.720;6.576;2023-03-03T08:33:00;100300.59;;;10.66;45.03
17615;BME280;8926;49.720;6.576;2023-03-03T08:35:26;100296.06;;;10.69;45.38
17615;BME280;8926;49.720;6.576;2023-03-03T08:37:52;100306.09;;;10.78;45.18
17615;BME280;8926;49.720;6.576;2023-03-03T08:40:18;100308.63;;;10.97;44.93
17615;BME280;8926;49.720;6.576;2023-03-03T08:42:43;100307.63;;;10.82;44.97
17615;BME280;8926;49.720;6.576;2023-03-03T08:45:08;100316.28;;;10.66;45.53
17615;BME280;8926;49.720;6.576;2023-03-03T08:47:34;100325.38;;;10.76;45.62
17615;BME280;8926;49.720;6.576;2023-03-03T08:49:59;100325.44;;;10.74;45.95
17615;BME280;8926;49.720;6.576;2023-03-03T08:52:24;100322.34;;;10.66;45.72
17615;BME280;8926;49.720;6.576;2023-03-03T08:54:50;100326.84;;;10.81;46.29
17615;BME280;8926;49.720;6.576;2023-03-03T08:57:16;100325.00;;;10.83;45.90
17615;BME280;8926;49.720;6.576;2023-03-03T08:59:41;100336.19;;;10.68;45.86
17615;BME280;8926;49.720;6.576;2023-03-03T09:02:07;100332.22;;;10.78;46.03
17615;BME280;8926;49.720;6.576;2023-03-03T09:04:33;100329.88;;;10.55;46.86
17615;BME280;8926;49.720;6.576;2023-03-03T09:06:58;100336.34;;;10.65;46.49
17615;BME280;8926;49.720;6.576;2023-03-03T09:09:23;100342.84;;;10.57;46.80
17615;BME280;8926;49.720;6.576;2023-03-03T09:11:49;100335.47;;;10.83;46.56
17615;BME280;8926;49.720;6.576;2023-03-03T09:14:16;100334.34;;;10.70;46.16
17615;BME280;8926;49.720;6.576;2023-03-03T09:16:52;100335.19;;;10.90;45.75
17615;BME280;8926;49.720;6.576;2023-03-03T09:19:44;100334.41;;;10.87;46.08
17615;BME280;8926;49.720;6.576;2023-03-03T09:22:30;100338.50;;;10.74;46.01
17615;BME280;8926;49.720;6.576;2023-03-03T09:25:00;100342.78;;;10.58;46.27
17615;BME280;8926;49.720;6.576;2023-03-03T09:27:28;100338.84;;;10.85;46.29
17615;BME280;8926;49.720;6.576;2023-03-03T09:29:54;100326.06;;;10.62;46.81
17615;BME280;8926;49.720;6.576;2023-03-03T09:32:49;100330.38;;;10.80;46.61
17615;BME280;8926;49.720;6.576;2023-03-03T09:35:37;100336.69;;;10.94;46.12
17615;BME280;8926;49.720;6.576;2023-03-03T09:49:37;100341.81;;;11.31;45.89
17615;BME280;8926;49.720;6.576;2023-03-03T09:52:32;100337.72;;;11.60;45.86
17615;BME280;8926;49.720;6.576;2023-03-03T09:55:33;100336.31;;;11.87;45.29
17615;BME280;8926;49.720;6.576;2023-03-03T10:01:10;100331.84;;;11.72;45.58
17615;BME280;8926;49.720;6.576;2023-03-03T10:06:48;100335.19;;;12.09;45.28
17615;BME280;8926;49.720;6.576;2023-03-03T10:12:32;100335.31;;;11.90;44.79
17615;BME280;8926;49.720;6.576;2023-03-03T10:17:49;100343.28;;;12.04;45.08
17615;BME280;8926;49.720;6.576;2023-03-03T10:20:46;100345.44;;;11.96;44.48
17615;BME280;8926;49.720;6.576;2023-03-03T10:23:28;100344.09;;;11.89;44.99
17615;BME280;8926;49.720;6.576;2023-03-03T10:26:15;100354.34;;;12.09;44.58
17615;BME280;8926;49.720;6.576;2023-03-03T10:29:04;100347.13;;;11.97;45.00
17615;BME280;8926;49.720;6.576;2023-03-03T10:34:29;100344.50;;;11.97;44.99
17615;BME280;8926;49.720;6.576;2023-03-03T10:36:59;100346.28;;;11.97;44.37
17615;BME280;8926;49.720;6.576;2023-03-03T10:39:48;100348.09;;;11.79;45.21
17615;BME280;8926;49.720;6.576;2023-03-03T10:45:25;100338.53;;;11.95;44.72
17615;BME280;8926;49.720;6.576;2023-03-03T10:48:02;100346.88;;;11.86;45.00
17615;BME280;8926;49.720;6.576;2023-03-03T10:50:50;100351.34;;;11.84;44.86
17615;BME280;8926;49.720;6.576;2023-03-03T10:53:49;100348.16;;;11.95;44.84
17615;BME280;8926;49.720;6.576;2023-03-03T10:56:28;100351.53;;;11.97;44.44
17615;BME280;8926;49.720;6.576;2023-03-03T11:02:02;100344.25;;;11.86;44.84
17615;BME280;8926;49.720;6.576;2023-03-03T11:07:34;100348.72;;;11.84;45.01
17615;BME280;8926;49.720;6.576;2023-03-03T11:10:44;100356.97;;;11.59;44.67
17615;BME280;8926;49.720;6.576;2023-03-03T11:16:11;100347.34;;;11.60;45.59
17615;BME280;8926;49.720;6.576;2023-03-03T11:18:51;100346.53;;;11.75;45.17
17615;BME280;8926;49.720;6.576;2023-03-03T11:21:30;100345.50;;;11.79;45.04
17615;BME280;8926;49.720;6.576;2023-03-03T11:24:18;100339.16;;;11.83;44.92
17615;BME280;8926;49.720;6.576;2023-03-03T11:27:26;100329.63;;;11.65;44.97
17615;BME280;8926;49.720;6.576;2023-03-03T11:30:05;100328.09;;;11.61;45.62
17615;BME280;8926;49.720;6.576;2023-03-03T11:35:35;100323.91;;;11.74;44.89
17615;BME280;8926;49.720;6.576;2023-03-03T11:41:00;100322.88;;;11.61;45.72
17615;BME280;8926;49.720;6.576;2023-03-03T11:43:32;100310.97;;;11.71;45.62
17615;BME280;8926;49.720;6.576;2023-03-03T11:46:07;100319.59;;;11.90;45.58
17615;BME280;8926;49.720;6.576;2023-03-03T11:49:15;100315.38;;;12.03;45.20
17615;BME280;8926;49.720;6.576;2023-03-03T11:54:12;100305.25;;;11.97;44.54
17615;BME280;8926;49.720;6.576;2023-03-03T11:56:43;100299.34;;;12.09;44.14
17615;BME280;8926;49.720;6.576;2023-03-03T11:59:24;100292.94;;;12.31;44.31
17615;BME280;8926;49.720;6.576;2023-03-03T12:04:56;100289.03;;;12.22;43.10
17615;BME280;8926;49.720;6.576;2023-03-03T12:07:52;100286.53;;;12.20;42.73
17615;BME280;8926;49.720;6.576;2023-03-03T12:10:27;100283.28;;;12.00;43.29
17615;BME280;8926;49.720;6.576;2023-03-03T12:16:06;100287.91;;;11.62;43.92
17615;BME280;8926;49.720;6.576;2023-03-03T12:21:10;100278.22;;;11.64;43.81
17615;BME280;8926;49.720;6.576;2023-03-03T12:26:29;100275.75;;;11.61;43.10
17615;BME280;8926;49.720;6.576;2023-03-03T12:29:06;100283.81;;;11.40;43.84
17615;BME280;8926;49.720;6.576;2023-03-03T12:31:47;100277.03;;;11.36;43.72
17615;BME280;8926;49.720;6.576;2023-03-03T12:39:56;100272.72;;;11.18;44.44
17615;BME280;8926;49.720;6.576;2023-03-03T12:42:55;100267.19;;;11.24;44.40
17615;BME280;8926;49.720;6.576;2023-03-03T12:48:15;100262.28;;;11.35;43.65
17615;BME280;8926;49.720;6.576;2023-03-03T12:50:52;100259.34;;;11.41;43.56
17615;BME280;8926;49.720;6.576;2023-03-03T12:56:04;100267.34;;;11.21;43.95
17615;BME280;8926;49.720;6.576;2023-03-03T12:58:47;100267.03;;;11.27;42.49
17615;BME280;8926;49.720;6.576;2023-03-03T13:04:12;100268.44;;;11.00;42.64
17615;BME280;8926;49.720;6.576;2023-03-03T13:06:59;100266.75;;;10.99;42.93
17615;BME280;8926;49.720;6.576;2023-03-03T13:12:34;100254.38;;;10.85;43.44
17615;BME280;8926;49.720;6.576;2023-03-03T13:15:22;100253.66;;;10.81;43.94
17615;BME280;8926;49.720;6.576;2023-03-03T13:20:42;100257.44;;;10.76;43.45
17615;BME280;8926;49.720;6.576;2023-03-03T13:26:23;100252.59;;;10.85;43.25
17615;BME280;8926;49.720;6.576;2023-03-03T13:31:33;100246.06;;;10.77;42.73
17615;BME280;8926;49.720;6.576;2023-03-03T13:34:01;100241.44;;;10.65;42.79
17615;BME280;8926;49.720;6.576;2023-03-03T13:36:48;100248.50;;;10.63;43.43
17615;BME280;8926;49.720;6.576;2023-03-03T13:39:23;100250.03;;;10.67;43.49
17615;BME280;8926;49.720;6.576;2023-03-03T13:42:02;100240.44;;;10.67;43.91
17615;BME280;8926;49.720;6.576;2023-03-03T13:44:41;100233.50;;;10.66;43.39
17615;BME280;8926;49.720;6.576;2023-03-03T13:50:02;100228.91;;;10.54;43.66
17615;BME280;8926;49.720;6.576;2023-03-03T13:52:32;100219.59;;;10.48;43.69
17615;BME280;8926;49.720;6.576;2023-03-03T13:55:23;100225.50;;;10.52;43.75
17615;BME280;8926;49.720;6.576;2023-03-03T13:57:59;100224.59;;;10.53;44.01
17615;BME280;8926;49.720;6.576;2023-03-03T14:00:28;100216.19;;;10.46;44.39
17615;BME280;8926;49.720;6.576;2023-03-03T14:03:14;100211.81;;;10.47;44.31
17615;BME280;8926;49.720;6.576;2023-03-03T14:05:45;100208.84;;;10.54;44.17
17615;BME280;8926;49.720;6.576;2023-03-03T14:11:30;100201.72;;;10.58;45.03
17615;BME280;8926;49.720;6.576;2023-03-03T14:16:39;100190.63;;;10.53;44.04
17615;BME280;8926;49.720;6.576;2023-03-03T14:24:17;100189.25;;;10.46;43.61
17615;BME280;8926;49.720;6.576;2023-03-03T14:26:51;100185.69;;;10.47;42.23
17615;BME280;8926;49.720;6.576;2023-03-03T14:31:52;100189.09;;;10.49;42.02
17615;BME280;8926;49.720;6.576;2023-03-03T14:34:37;100186.56;;;10.47;41.79
17615;BME280;8926;49.720;6.576;2023-03-03T14:37:41;100185.25;;;10.56;41.98
17615;BME280;8926;49.720;6.576;2023-03-03T14:47:53;100182.41;;;10.43;42.35
17615;BME280;8926;49.720;6.576;2023-03-03T14:50:38;100185.31;;;10.37;41.95
17615;BME280;8926;49.720;6.576;2023-03-03T14:53:31;100175.56;;;10.41;42.66
17615;BME280;8926;49.720;6.576;2023-03-03T14:56:24;100174.72;;;10.40;42.47
17615;BME280;8926;49.720;6.576;2023-03-03T14:58:51;100180.94;;;10.38;41.82
17615;BME280;8926;49.720;6.576;2023-03-03T15:01:30;100176.56;;;10.38;42.08
17615;BME280;8926;49.720;6.576;2023-03-03T15:04:01;100175.88;;;10.35;42.53
17615;BME280;8926;49.720;6.576;2023-03-03T15:06:43;100176.94;;;10.31;42.24
17615;BME280;8926;49.720;6.576;2023-03-03T15:09:36;100167.72;;;10.24;42.23
17615;BME280;8926;49.720;6.576;2023-03-03T15:12:22;100173.50;;;10.11;42.92
17615;BME280;8926;49.720;6.576;2023-03-03T15:14:51;100184.94;;;10.09;43.16
17615;BME280;8926;49.720;6.576;2023-03-03T15:20:37;100177.50;;;10.18;42.52
17615;BME280;8926;49.720;6.576;2023-03-03T15:26:06;100189.31;;;10.08;42.59
17615;BME280;8926;49.720;6.576;2023-03-03T15:28:56;100196.09;;;10.12;42.54
17615;BME280;8926;49.720;6.576;2023-03-03T15:31:52;100187.75;;;10.04;42.02
17615;BME280;8926;49.720;6.576;2023-03-03T15:37:04;100197.22;;;9.88;43.27
17615;BME280;8926;49.720;6.576;2023-03-03T15:39:47;100200.75;;;9.87;43.45
17615;BME280;8926;49.720;6.576;2023-03-03T15:42:26;100204.69;;;9.77;43.53
17615;BME280;8926;49.720;6.576;2023-03-03T16:02:17;100210.09;;;9.14;46.11
17615;BME280;8926;49.720;6.576;2023-03-03T16:05:01;100216.16;;;9.15;45.52
17615;BME280;8926;49.720;6.576;2023-03-03T16:13:15;100218.53;;;9.01;46.34
17615;BME280;8926;49.720;6.576;2023-03-03T16:16:42;100220.41;;;8.97;46.90
17615;BME280;8926;49.720;6.576;2023-03-03T16:19:21;100230.44;;;8.86;46.99
17615;BME280;8926;49.720;6.576;2023-03-03T16:22:17;100237.41;;;8.85;47.36